Huvudsida
METAR-TAF:

METAR-TAF

Flygplatser :

Kuusamo, Finland

Kuusamo flygplats

latitud: 65-58N, longitud: 029-11E, höjd: 262 m

Aktuellt väderrapport

Denna rapport gjordes för 21 minuter sedan, klockan 03:20 UTC
Vind 5 kt från ost
Temperatur -14°C
Fuktighet 92%
Tryck 1002 hPa
Sikt 10 km eller mer
Klar himmel
lätta snöbyar

METAR: EFKS 190320Z AUTO 08005KT 9999 -SHSN SKC M14/M15 Q1002

Tid: 05:41 (03:41 UTC)

Väderprognos

Denna rapport gjordes för 8 timmar och 39 minuter sedan, klockan 19:02 UTC
Prognos gäller från 18 kl. 19 UTC till 18 kl. 22 UTC
Vind 8 kt från ost
Sikt 10 km eller mer
Brutna moln på en höjd av 1500 ft
lätt snö
Temporärt
från 18 kl. 19 UTC till 18 kl. 22 UTC
Sikt: 2000 m
Brutna moln på en höjd av 900 ft
snö

TAF: EFKS 181902Z 1819/1822 08008KT 9999 -SN BKN015 TEMPO 1819/1822 2000 SN BKN009

Aktuella väderrapporter och prognoser från 4000 flygplatser (METAR- och TAF-rapporter).

De tillgängliga stationerna syns som gula och röda prickar på kartan.

För musen över prickarna för att se namnen på stationerna.

Klicka sedan för att få väderrapporter och prognoser.

För att ändra kartan: Klicka på de gröna knapparna med ett svart kors på för att zooma in; den gröna knappen med ett streck på för att zooma ut; eller på de gröna pilarna för angränsande kartor.


METAR-TAF: